createdAt,value
2019-01-17T00:05:31.377Z,8.37
2019-01-17T00:10:55.748Z,8.80
2019-01-17T00:16:28.114Z,8.57
2019-01-17T00:21:58.145Z,8.63
2019-01-17T00:27:30.010Z,7.67
2019-01-17T00:33:06.546Z,8.70
2019-01-17T00:38:44.326Z,7.90
2019-01-17T00:44:23.862Z,7.67
2019-01-17T00:49:56.071Z,7.20
2019-01-17T00:55:32.546Z,7.97
2019-01-17T01:01:11.875Z,7.33
2019-01-17T01:06:50.044Z,8.57
2019-01-17T01:12:22.747Z,6.80
2019-01-17T01:18:02.498Z,7.87
2019-01-17T01:23:29.621Z,7.33
2019-01-17T01:29:02.678Z,7.03
2019-01-17T01:34:34.118Z,6.40
2019-01-17T01:40:07.180Z,7.67
2019-01-17T01:45:50.249Z,6.90
2019-01-17T01:51:22.325Z,6.27
2019-01-17T01:56:37.191Z,5.83
2019-01-17T02:01:51.312Z,5.53
2019-01-17T02:07:06.011Z,5.60
2019-01-17T02:12:20.665Z,5.13
2019-01-17T02:17:35.448Z,6.93
2019-01-17T02:22:50.342Z,6.53
2019-01-17T02:28:04.887Z,5.50
2019-01-17T02:33:22.952Z,4.73
2019-01-17T02:38:37.268Z,4.73
2019-01-17T02:43:53.990Z,4.47
2019-01-17T02:49:09.171Z,4.77
2019-01-17T02:54:23.780Z,4.60
2019-01-17T02:59:38.250Z,4.47
2019-01-17T03:04:52.912Z,4.40
2019-01-17T03:10:11.051Z,4.10
2019-01-17T03:15:25.696Z,4.70
2019-01-17T03:20:40.640Z,4.77
2019-01-17T03:25:55.450Z,3.73
2019-01-17T03:31:09.756Z,5.07
2019-01-17T03:36:24.549Z,4.40
2019-01-17T03:41:39.285Z,4.87
2019-01-17T03:46:54.075Z,5.60
2019-01-17T03:52:08.753Z,3.97
2019-01-17T03:57:23.500Z,4.83
2019-01-17T04:02:38.602Z,4.20
2019-01-17T04:07:52.991Z,4.53
2019-01-17T04:13:07.218Z,3.97
2019-01-17T04:18:21.768Z,4.20
2019-01-17T04:23:36.143Z,4.70
2019-01-17T04:28:51.804Z,4.07
2019-01-17T04:34:06.622Z,4.03
2019-01-17T04:39:21.641Z,3.97
2019-01-17T04:44:36.306Z,4.17
2019-01-17T04:49:50.756Z,4.20
2019-01-17T04:55:08.972Z,3.33
2019-01-17T05:00:33.420Z,4.50
2019-01-17T05:05:50.955Z,3.77
2019-01-17T05:11:05.546Z,4.40
2019-01-17T05:16:20.213Z,4.20
2019-01-17T05:21:37.315Z,4.97
2019-01-17T05:26:52.051Z,4.33
2019-01-17T05:32:06.296Z,3.80
2019-01-17T05:37:20.478Z,3.97
2019-01-17T05:42:34.890Z,3.67
2019-01-17T05:47:49.754Z,4.50
2019-01-17T05:53:04.250Z,4.47
2019-01-17T05:58:18.620Z,4.07
2019-01-17T06:03:35.873Z,4.30
2019-01-17T06:08:50.555Z,4.00
2019-01-17T06:14:05.234Z,4.27
2019-01-17T06:19:21.316Z,4.43
2019-01-17T06:24:35.944Z,4.37
2019-01-17T06:29:52.848Z,4.03
2019-01-17T06:35:07.931Z,4.60
2019-01-17T06:40:32.014Z,4.07
2019-01-17T06:45:49.918Z,3.33
2019-01-17T06:51:05.214Z,4.07
2019-01-17T06:56:23.925Z,3.20
2019-01-17T07:01:38.553Z,3.77
2019-01-17T07:06:54.062Z,4.63
2019-01-17T07:12:09.026Z,5.77
2019-01-17T07:17:24.036Z,4.53
2019-01-17T07:22:38.436Z,4.93
2019-01-17T07:27:53.118Z,4.60
2019-01-17T07:33:07.582Z,5.37
2019-01-17T07:38:22.257Z,5.27
2019-01-17T07:43:36.767Z,10.50
2019-01-17T07:49:26.843Z,8.97
2019-01-17T07:54:46.395Z,7.40
2019-01-17T08:00:00.784Z,7.13
2019-01-17T08:05:15.606Z,7.20
2019-01-17T08:10:30.156Z,5.27
2019-01-17T08:15:44.896Z,3.53
2019-01-17T08:20:59.686Z,2.93
2019-01-17T08:26:14.457Z,3.70
2019-01-17T08:31:28.984Z,3.03
2019-01-17T08:36:43.845Z,3.43
2019-01-17T08:41:58.593Z,1.93
2019-01-17T08:47:12.729Z,3.10
2019-01-17T08:52:27.367Z,2.90
2019-01-17T08:57:41.825Z,2.70
2019-01-17T09:02:56.411Z,2.70
2019-01-17T09:08:10.698Z,2.20
2019-01-17T09:13:25.272Z,3.53
2019-01-17T09:18:39.393Z,3.40
2019-01-17T09:23:53.742Z,3.00
2019-01-17T09:29:08.982Z,2.00
2019-01-17T09:34:23.380Z,2.10
2019-01-17T09:39:37.565Z,3.43
2019-01-17T09:44:52.111Z,2.97
2019-01-17T09:50:09.585Z,2.57
2019-01-17T09:55:24.077Z,2.83
2019-01-17T10:00:38.707Z,3.53
2019-01-17T10:05:53.175Z,3.63
2019-01-17T10:11:07.746Z,2.03
2019-01-17T10:16:34.136Z,3.10
2019-01-17T10:22:26.530Z,4.00
2019-01-17T10:28:16.379Z,4.07
2019-01-17T10:34:11.339Z,2.70
2019-01-17T10:40:05.161Z,3.20
2019-01-17T10:46:05.423Z,3.63
2019-01-17T10:51:40.665Z,3.10
2019-01-17T10:57:13.593Z,3.87
2019-01-17T11:02:59.206Z,1.80
2019-01-17T11:08:37.366Z,1.67
2019-01-17T11:14:11.571Z,2.00
2019-01-17T11:20:01.363Z,1.90
2019-01-17T11:25:40.850Z,2.60
2019-01-17T11:31:41.278Z,1.57
2019-01-17T11:37:51.678Z,1.60
2019-01-17T11:43:42.208Z,1.57
2019-01-17T11:49:24.959Z,1.87
2019-01-17T11:55:09.212Z,1.03
2019-01-17T12:00:52.468Z,1.30
2019-01-17T12:06:07.231Z,1.53
2019-01-17T12:11:23.302Z,1.70
2019-01-17T12:16:40.917Z,1.47
2019-01-17T12:21:55.578Z,1.90
2019-01-17T12:27:10.466Z,1.97
2019-01-17T12:32:26.171Z,1.60
2019-01-17T12:37:41.408Z,1.60
2019-01-17T12:42:56.082Z,1.30
2019-01-17T12:48:11.125Z,1.00
2019-01-17T12:53:26.029Z,1.10
2019-01-17T12:58:40.514Z,0.90
2019-01-17T13:03:55.295Z,1.00
2019-01-17T13:09:10.000Z,0.97
2019-01-17T13:14:24.396Z,1.20
2019-01-17T13:19:39.176Z,1.10
2019-01-17T13:24:53.839Z,1.10
2019-01-17T13:30:17.308Z,1.20
2019-01-17T13:35:31.926Z,1.03
2019-01-17T13:40:47.669Z,1.80
2019-01-17T13:46:02.085Z,2.03
2019-01-17T13:51:16.689Z,1.40
2019-01-17T13:56:31.461Z,1.80
2019-01-17T14:01:46.148Z,2.40
2019-01-17T14:07:00.820Z,2.00
2019-01-17T14:12:15.096Z,1.70
2019-01-17T14:17:29.679Z,1.87
2019-01-17T14:22:44.532Z,1.37
2019-01-17T14:27:58.842Z,1.10
2019-01-17T14:33:13.304Z,1.17
2019-01-17T14:38:27.799Z,1.37
2019-01-17T14:43:42.765Z,1.10
2019-01-17T14:49:00.413Z,1.00
2019-01-17T14:54:14.480Z,1.50
2019-01-17T14:59:29.166Z,0.80
2019-01-17T15:04:43.561Z,1.10
2019-01-17T15:09:59.497Z,1.50
2019-01-17T15:15:14.626Z,1.53
2019-01-17T15:20:29.581Z,1.10
2019-01-17T15:25:44.494Z,1.83
2019-01-17T15:30:59.220Z,0.90
2019-01-17T15:36:13.615Z,1.10
2019-01-17T15:41:29.432Z,1.67
2019-01-17T15:46:44.288Z,1.30
2019-01-17T15:51:58.829Z,1.73
2019-01-17T15:57:16.626Z,1.70
2019-01-17T16:02:31.016Z,1.63
2019-01-17T16:07:45.630Z,1.47
2019-01-17T16:13:00.302Z,1.40
2019-01-17T16:18:14.964Z,1.67
2019-01-17T16:23:29.392Z,2.00
2019-01-17T16:28:44.095Z,1.80
2019-01-17T16:33:58.690Z,1.83
2019-01-17T16:39:13.344Z,2.63
2019-01-17T16:44:29.991Z,1.10
2019-01-17T16:49:44.885Z,1.60
2019-01-17T16:55:02.846Z,1.20
2019-01-17T17:00:21.628Z,1.40
2019-01-17T17:05:36.980Z,1.80
2019-01-17T17:10:51.818Z,1.30
2019-01-17T17:16:07.006Z,1.90
2019-01-17T17:21:21.573Z,1.40
2019-01-17T17:26:36.147Z,1.97
2019-01-17T17:31:50.546Z,1.77
2019-01-17T17:37:05.017Z,1.33
2019-01-17T17:42:20.004Z,1.63
2019-01-17T17:47:34.612Z,1.00
2019-01-17T17:52:52.593Z,1.27
2019-01-17T17:58:07.416Z,1.67
2019-01-17T18:03:22.182Z,1.47
2019-01-17T18:08:36.991Z,1.20
2019-01-17T18:13:53.235Z,1.00
2019-01-17T18:19:08.333Z,0.93
2019-01-17T18:24:23.033Z,0.93
2019-01-17T18:29:38.704Z,0.90
2019-01-17T18:34:53.590Z,1.00
2019-01-17T18:40:10.848Z,1.50
2019-01-17T18:45:25.423Z,1.50
2019-01-17T18:50:40.089Z,1.43
2019-01-17T19:06:33.323Z,2.20
2019-01-17T19:11:47.730Z,1.10
2019-01-17T19:17:02.819Z,3.13
2019-01-17T19:22:26.238Z,1.90
2019-01-17T19:27:42.721Z,1.93
2019-01-17T19:32:57.415Z,1.93
2019-01-17T19:38:11.892Z,1.30
2019-01-17T19:43:27.346Z,1.03
2019-01-17T19:48:42.929Z,2.40
2019-01-17T19:53:58.205Z,2.00
2019-01-17T19:59:27.951Z,1.87
2019-01-17T20:04:45.911Z,2.03
2019-01-17T20:10:00.797Z,2.03
2019-01-17T20:15:15.664Z,1.77
2019-01-17T20:20:31.965Z,1.83
2019-01-17T20:25:47.074Z,1.53
2019-01-17T20:31:01.790Z,1.97
2019-01-17T20:36:16.855Z,2.30
2019-01-17T20:41:31.834Z,2.30
2019-01-17T20:46:47.298Z,2.23
2019-01-17T20:52:03.584Z,2.67
2019-01-17T20:57:18.600Z,2.60
2019-01-17T21:02:33.098Z,2.43
2019-01-17T21:07:48.444Z,3.00
2019-01-17T21:13:03.273Z,2.70
2019-01-17T21:18:17.879Z,3.20
2019-01-17T21:23:32.988Z,2.30
2019-01-17T21:28:49.183Z,2.00
2019-01-17T21:34:03.851Z,1.70
2019-01-17T21:39:18.753Z,1.90
2019-01-17T21:44:33.195Z,1.60
2019-01-17T21:49:49.762Z,1.50
2019-01-17T21:55:04.709Z,1.63
2019-01-17T22:00:21.226Z,1.43
2019-01-17T22:05:36.685Z,1.30
2019-01-17T22:10:51.195Z,2.77
2019-01-17T22:16:09.305Z,1.97
2019-01-17T22:21:23.571Z,1.90
2019-01-17T22:26:38.163Z,2.10
2019-01-17T22:31:52.543Z,2.70
2019-01-17T22:37:09.010Z,2.37
2019-01-17T22:42:23.287Z,1.87
2019-01-17T22:47:38.050Z,3.43
2019-01-17T22:52:52.771Z,3.07
2019-01-17T22:58:07.076Z,1.80
2019-01-17T23:03:24.274Z,2.07
2019-01-17T23:08:38.940Z,1.40
2019-01-17T23:13:53.355Z,1.70
2019-01-17T23:19:07.637Z,1.90
2019-01-17T23:24:22.411Z,2.37
2019-01-17T23:29:36.779Z,1.80
2019-01-17T23:34:51.481Z,1.87
2019-01-17T23:40:06.521Z,2.27
2019-01-17T23:45:21.221Z,2.33
2019-01-17T23:50:35.704Z,2.10
2019-01-17T23:55:50.498Z,2.40
